createdAt,value
2023-03-06T00:01:09.024Z,4.10
2023-03-06T00:03:36.821Z,4.14
2023-03-06T00:06:04.460Z,4.18
2023-03-06T00:08:31.989Z,4.16
2023-03-06T00:11:00.793Z,4.14
2023-03-06T00:13:30.632Z,4.13
2023-03-06T00:16:00.696Z,4.12
2023-03-06T00:18:28.733Z,4.10
2023-03-06T00:20:56.343Z,3.80
2023-03-06T00:23:24.164Z,4.09
2023-03-06T00:25:52.089Z,4.10
2023-03-06T00:28:19.667Z,3.97
2023-03-06T00:30:48.478Z,4.09
2023-03-06T00:33:17.114Z,3.77
2023-03-06T00:35:44.648Z,4.01
2023-03-06T00:38:12.782Z,4.03
2023-03-06T00:40:40.627Z,4.03
2023-03-06T00:43:08.146Z,4.01
2023-03-06T00:45:36.408Z,4.03
2023-03-06T00:48:04.595Z,3.93
2023-03-06T00:50:32.152Z,3.72
2023-03-06T00:53:00.466Z,4.00
2023-03-06T00:55:29.560Z,4.05
2023-03-06T00:57:57.107Z,4.06
2023-03-06T01:00:25.102Z,4.07
2023-03-06T01:02:53.757Z,4.00
2023-03-06T01:05:21.854Z,4.06
2023-03-06T01:07:49.959Z,3.80
2023-03-06T01:10:17.830Z,4.07
2023-03-06T01:12:45.954Z,4.05
2023-03-06T01:15:14.052Z,4.05
2023-03-06T01:17:42.019Z,4.01
2023-03-06T01:20:13.935Z,4.03
2023-03-06T01:22:42.987Z,4.00
2023-03-06T01:25:11.124Z,4.00
2023-03-06T01:27:38.571Z,4.01
2023-03-06T01:30:07.099Z,4.00
2023-03-06T01:32:34.634Z,3.99
2023-03-06T01:35:03.861Z,3.97
2023-03-06T01:37:31.875Z,3.95
2023-03-06T01:39:59.439Z,3.98
2023-03-06T01:42:26.931Z,3.99
2023-03-06T01:45:03.694Z,3.99
2023-03-06T01:47:31.323Z,4.00
2023-03-06T01:50:01.343Z,4.02
2023-03-06T01:52:33.168Z,4.01
2023-03-06T01:55:15.953Z,4.01
2023-03-06T01:57:57.698Z,4.01
2023-03-06T02:00:28.420Z,4.04
2023-03-06T02:03:10.521Z,3.93
2023-03-06T02:05:40.636Z,4.00
2023-03-06T02:08:12.190Z,3.98
2023-03-06T02:11:09.266Z,3.98
2023-03-06T02:13:38.384Z,3.99
2023-03-06T02:16:08.797Z,4.05
2023-03-06T02:18:37.995Z,3.72
2023-03-06T02:21:12.723Z,4.01
2023-03-06T02:24:03.242Z,3.99
2023-03-06T02:26:33.127Z,3.96
2023-03-06T02:29:00.670Z,3.96
2023-03-06T02:31:31.326Z,3.97
2023-03-06T02:34:14.547Z,3.93
2023-03-06T02:36:47.613Z,3.94
2023-03-06T02:39:16.686Z,3.88
2023-03-06T02:41:44.299Z,3.89
2023-03-06T02:44:12.960Z,3.83
2023-03-06T02:46:41.010Z,3.49
2023-03-06T02:49:08.573Z,3.56
2023-03-06T02:51:36.247Z,3.84
2023-03-06T02:54:04.196Z,3.82
2023-03-06T02:56:32.017Z,3.80
2023-03-06T02:58:59.512Z,3.86
2023-03-06T03:01:28.728Z,3.81
2023-03-06T03:03:56.266Z,3.74
2023-03-06T03:06:23.830Z,3.77
2023-03-06T03:08:51.826Z,3.76
2023-03-06T03:11:20.090Z,3.77
2023-03-06T03:13:47.669Z,3.43
2023-03-06T03:16:16.183Z,3.72
2023-03-06T03:18:44.644Z,3.74
2023-03-06T03:21:14.300Z,3.70
2023-03-06T03:23:42.197Z,3.67
2023-03-06T03:26:18.708Z,3.77
2023-03-06T03:28:47.520Z,3.73
2023-03-06T03:31:16.605Z,3.74
2023-03-06T03:33:44.728Z,3.73
2023-03-06T03:36:12.767Z,3.68
2023-03-06T03:38:41.029Z,3.68
2023-03-06T03:41:09.121Z,3.42
2023-03-06T03:43:37.072Z,3.65
2023-03-06T03:46:04.755Z,3.64
2023-03-06T03:48:32.962Z,3.64
2023-03-06T03:51:13.124Z,3.63
2023-03-06T03:53:40.928Z,3.63
2023-03-06T03:56:10.504Z,3.62
2023-03-06T03:58:40.882Z,3.58
2023-03-06T04:01:08.577Z,3.53
2023-03-06T04:03:37.081Z,3.53
2023-03-06T04:06:05.028Z,3.49
2023-03-06T04:08:32.564Z,3.46
2023-03-06T04:11:01.070Z,3.40
2023-03-06T04:13:29.913Z,3.42
2023-03-06T04:15:59.727Z,3.35
2023-03-06T04:18:28.542Z,3.28
2023-03-06T04:20:57.879Z,3.21
2023-03-06T04:23:26.395Z,2.85
2023-03-06T04:25:54.700Z,3.06
2023-03-06T04:28:22.729Z,2.73
2023-03-06T04:30:51.122Z,2.99
2023-03-06T04:33:19.267Z,2.97
2023-03-06T04:35:46.907Z,2.89
2023-03-06T04:38:14.970Z,2.87
2023-03-06T04:40:44.824Z,2.73
2023-03-06T04:43:12.924Z,2.71
2023-03-06T04:45:41.326Z,2.65
2023-03-06T04:48:12.719Z,2.64
2023-03-06T04:50:40.530Z,2.31
2023-03-06T04:53:08.755Z,2.54
2023-03-06T04:55:37.383Z,2.49
2023-03-06T04:58:04.958Z,2.43
2023-03-06T05:00:32.585Z,2.21
2023-03-06T05:03:01.558Z,2.03
2023-03-06T05:05:29.513Z,2.29
2023-03-06T05:07:57.540Z,2.25
2023-03-06T05:10:25.317Z,2.22
2023-03-06T05:12:52.924Z,2.26
2023-03-06T05:15:20.858Z,2.23
2023-03-06T05:17:48.798Z,2.25
2023-03-06T05:20:17.239Z,2.29
2023-03-06T05:22:44.991Z,2.29
2023-03-06T05:25:13.035Z,2.25
2023-03-06T05:27:41.038Z,2.25
2023-03-06T05:30:11.723Z,1.95
2023-03-06T05:32:39.635Z,1.99
2023-03-06T05:35:07.514Z,2.28
2023-03-06T05:37:35.149Z,2.31
2023-03-06T05:40:06.277Z,2.09
2023-03-06T05:42:33.735Z,2.37
2023-03-06T05:45:02.751Z,2.43
2023-03-06T05:47:31.668Z,2.48
2023-03-06T05:49:59.415Z,2.50
2023-03-06T05:52:27.011Z,2.56
2023-03-06T05:54:55.105Z,2.63
2023-03-06T05:57:23.788Z,2.67
2023-03-06T05:59:51.399Z,2.72
2023-03-06T06:02:19.510Z,2.51
2023-03-06T06:04:47.467Z,2.95
2023-03-06T06:07:16.168Z,3.09
2023-03-06T06:09:45.627Z,3.23
2023-03-06T06:12:14.472Z,3.29
2023-03-06T06:14:41.899Z,3.44
2023-03-06T06:17:09.545Z,3.55
2023-03-06T06:19:38.839Z,3.65
2023-03-06T06:22:06.387Z,3.74
2023-03-06T06:24:33.927Z,3.81
2023-03-06T06:27:03.831Z,3.90
2023-03-06T06:29:31.972Z,3.72
2023-03-06T06:32:00.267Z,4.10
2023-03-06T06:34:28.639Z,4.23
2023-03-06T06:36:56.391Z,4.26
2023-03-06T06:39:25.144Z,4.35
2023-03-06T06:42:14.644Z,4.38
2023-03-06T06:44:40.757Z,4.40
2023-03-06T06:47:22.284Z,4.52
2023-03-06T06:49:56.116Z,4.59
2023-03-06T06:52:24.744Z,4.71
2023-03-06T06:54:52.843Z,4.79
2023-03-06T06:57:20.365Z,4.83
2023-03-06T06:59:50.725Z,4.93
2023-03-06T07:02:20.420Z,5.09
2023-03-06T07:05:02.594Z,5.13
2023-03-06T07:07:34.445Z,5.22
2023-03-06T07:10:06.455Z,5.30
2023-03-06T07:12:35.194Z,5.33
2023-03-06T07:15:05.007Z,5.41
2023-03-06T07:17:32.685Z,5.52
2023-03-06T07:20:02.718Z,5.30
2023-03-06T07:22:38.601Z,5.38
2023-03-06T07:25:09.804Z,5.69
2023-03-06T07:27:37.657Z,5.49
2023-03-06T07:30:05.997Z,5.82
2023-03-06T07:32:33.642Z,5.95
2023-03-06T07:35:19.113Z,6.02
2023-03-06T07:37:47.702Z,6.17
2023-03-06T07:40:15.599Z,6.27
2023-03-06T07:42:43.351Z,6.07
2023-03-06T07:45:12.788Z,6.12
2023-03-06T07:47:41.038Z,6.55
2023-03-06T07:50:09.064Z,6.37
2023-03-06T07:52:36.571Z,6.66
2023-03-06T07:55:05.499Z,6.59
2023-03-06T07:57:33.272Z,6.81
2023-03-06T08:00:00.861Z,6.95
2023-03-06T08:02:28.753Z,6.72
2023-03-06T08:05:08.875Z,6.77
2023-03-06T08:07:37.978Z,6.78
2023-03-06T08:10:06.356Z,6.84
2023-03-06T08:12:33.893Z,7.15
2023-03-06T08:15:01.729Z,7.28
2023-03-06T08:17:29.491Z,7.43
2023-03-06T08:19:57.351Z,7.56
2023-03-06T08:22:25.086Z,7.73
2023-03-06T08:24:56.383Z,7.51
2023-03-06T08:27:24.191Z,7.90
2023-03-06T08:29:51.768Z,8.04
2023-03-06T08:32:19.644Z,8.10
2023-03-06T08:34:47.165Z,8.23
2023-03-06T08:37:14.630Z,8.10
2023-03-06T08:39:42.492Z,7.98
2023-03-06T08:42:10.839Z,8.18
2023-03-06T08:44:38.402Z,8.53
2023-03-06T08:47:06.228Z,8.77
2023-03-06T08:49:33.741Z,8.83
2023-03-06T08:52:01.285Z,8.92
2023-03-06T08:54:29.031Z,9.01
2023-03-06T08:56:56.483Z,9.11
2023-03-06T08:59:25.178Z,9.41
2023-03-06T09:01:53.082Z,9.58
2023-03-06T09:04:20.543Z,9.57
2023-03-06T09:06:48.072Z,9.59
2023-03-06T09:09:15.864Z,9.53
2023-03-06T09:11:43.441Z,9.60
2023-03-06T09:14:11.172Z,9.40
2023-03-06T09:16:39.000Z,9.47
2023-03-06T09:19:06.532Z,9.56
2023-03-06T09:21:34.157Z,9.39
2023-03-06T09:24:02.196Z,9.34
2023-03-06T09:26:43.336Z,9.47
2023-03-06T09:29:12.859Z,9.53
2023-03-06T09:31:41.016Z,9.41
2023-03-06T09:34:08.663Z,9.55
2023-03-06T09:36:49.518Z,9.62
2023-03-06T09:39:21.215Z,9.72
2023-03-06T09:41:50.411Z,9.86
2023-03-06T09:44:23.771Z,9.78
2023-03-06T09:47:21.875Z,9.88
2023-03-06T09:50:09.844Z,10.00
2023-03-06T09:53:03.543Z,10.06
2023-03-06T09:55:39.895Z,9.98
2023-03-06T09:58:20.075Z,9.87
2023-03-06T10:00:53.499Z,9.92
2023-03-06T10:03:46.183Z,10.22
2023-03-06T10:06:20.187Z,10.34
2023-03-06T10:09:03.399Z,10.19
2023-03-06T10:11:43.705Z,10.28
2023-03-06T10:14:18.630Z,10.48
2023-03-06T10:16:47.239Z,10.35
2023-03-06T10:19:19.326Z,10.13
2023-03-06T10:22:18.004Z,10.44
2023-03-06T10:25:12.011Z,10.52
2023-03-06T10:28:09.083Z,10.54
2023-03-06T10:30:55.286Z,10.66
2023-03-06T10:34:03.231Z,10.66
2023-03-06T10:36:31.064Z,10.89
2023-03-06T10:38:59.466Z,10.93
2023-03-06T10:41:30.452Z,11.18
2023-03-06T10:44:01.168Z,11.02
2023-03-06T10:46:38.024Z,10.54
2023-03-06T10:49:21.872Z,10.66
2023-03-06T10:52:15.728Z,10.46
2023-03-06T10:54:44.450Z,10.84
2023-03-06T10:57:25.541Z,10.81
2023-03-06T11:00:04.610Z,10.91
2023-03-06T11:02:38.585Z,11.05
2023-03-06T11:05:19.426Z,10.86
2023-03-06T11:07:55.896Z,11.13
2023-03-06T11:10:24.457Z,11.09
2023-03-06T11:13:19.001Z,11.39
2023-03-06T11:16:16.231Z,11.47
2023-03-06T11:18:56.183Z,11.80
2023-03-06T11:21:33.930Z,11.95
2023-03-06T11:24:11.943Z,11.96
2023-03-06T11:27:00.509Z,11.77
2023-03-06T11:29:38.536Z,11.81
2023-03-06T11:32:35.575Z,11.89
2023-03-06T11:35:12.323Z,11.76
2023-03-06T11:37:49.404Z,12.27
2023-03-06T11:40:52.402Z,12.66
2023-03-06T11:44:04.772Z,12.76
2023-03-06T11:46:43.786Z,12.78
2023-03-06T11:49:35.036Z,13.11
2023-03-06T11:52:15.786Z,13.09
2023-03-06T11:54:43.772Z,12.98
2023-03-06T11:57:25.152Z,13.05
2023-03-06T12:00:14.193Z,13.22
2023-03-06T12:02:49.765Z,13.07
2023-03-06T12:05:47.431Z,13.12
2023-03-06T12:08:30.396Z,13.23
2023-03-06T12:11:06.469Z,13.28
2023-03-06T12:14:05.277Z,13.22
2023-03-06T12:17:02.691Z,13.23
2023-03-06T12:20:10.765Z,13.11
2023-03-06T12:22:57.964Z,12.52
2023-03-06T12:25:45.154Z,12.33
2023-03-06T12:28:31.191Z,12.51
2023-03-06T12:31:38.146Z,12.48
2023-03-06T12:34:40.806Z,12.81
2023-03-06T12:37:15.234Z,12.89
2023-03-06T12:40:06.756Z,12.63
2023-03-06T12:43:06.034Z,12.59
2023-03-06T12:45:34.730Z,12.59
2023-03-06T12:48:04.675Z,13.11
2023-03-06T12:50:37.160Z,12.84
2023-03-06T12:53:12.081Z,12.71
2023-03-06T12:55:46.331Z,12.77
2023-03-06T12:58:29.324Z,13.19
2023-03-06T13:01:04.298Z,13.39
2023-03-06T13:04:10.638Z,13.39
2023-03-06T13:07:05.967Z,13.60
2023-03-06T13:09:59.194Z,13.67
2023-03-06T13:12:45.036Z,13.44
2023-03-06T13:15:42.255Z,13.50
2023-03-06T13:18:21.964Z,13.66
2023-03-06T13:20:54.417Z,13.48
2023-03-06T13:23:35.083Z,13.66
2023-03-06T13:26:05.377Z,13.50
2023-03-06T13:28:50.590Z,13.69
2023-03-06T13:31:33.839Z,13.56
2023-03-06T13:34:25.833Z,13.59
2023-03-06T13:36:53.566Z,13.43
2023-03-06T13:39:21.076Z,13.02
2023-03-06T13:41:58.038Z,13.09
2023-03-06T13:44:26.089Z,12.99
2023-03-06T13:47:25.221Z,12.58
2023-03-06T13:49:53.080Z,12.56
2023-03-06T13:52:40.618Z,12.47
2023-03-06T13:55:11.292Z,12.25
2023-03-06T13:57:47.924Z,12.49
2023-03-06T14:00:47.124Z,12.41
2023-03-06T14:03:32.965Z,12.44
2023-03-06T14:06:00.681Z,12.53
2023-03-06T14:08:33.305Z,12.59
2023-03-06T14:11:02.382Z,12.61
2023-03-06T14:13:48.749Z,12.30
2023-03-06T14:16:23.911Z,12.12
2023-03-06T14:18:54.080Z,11.95
2023-03-06T14:21:41.707Z,11.99
2023-03-06T14:24:17.632Z,11.94
2023-03-06T14:26:48.686Z,11.89
2023-03-06T14:29:25.240Z,11.74
2023-03-06T14:31:58.737Z,11.62
2023-03-06T14:34:27.850Z,11.49
2023-03-06T14:36:58.162Z,11.45
2023-03-06T14:39:43.455Z,11.39
2023-03-06T14:42:16.909Z,11.32
2023-03-06T14:44:46.126Z,11.27
2023-03-06T14:47:35.182Z,11.24
2023-03-06T14:50:27.630Z,11.26
2023-03-06T14:53:13.417Z,11.14
2023-03-06T14:55:53.195Z,10.88
2023-03-06T14:58:29.262Z,11.09
2023-03-06T15:01:02.359Z,10.98
2023-03-06T15:03:44.382Z,10.58
2023-03-06T15:06:25.443Z,10.74
2023-03-06T15:09:02.337Z,10.57
2023-03-06T15:11:51.799Z,10.20
2023-03-06T15:14:22.371Z,10.29
2023-03-06T15:16:50.137Z,10.17
2023-03-06T15:19:20.151Z,9.98
2023-03-06T15:21:50.809Z,9.84
2023-03-06T15:24:35.459Z,9.56
2023-03-06T15:27:07.591Z,9.34
2023-03-06T15:29:39.015Z,8.92
2023-03-06T15:32:42.424Z,8.65
2023-03-06T15:35:38.333Z,8.47
2023-03-06T15:38:30.819Z,8.35
2023-03-06T15:41:01.365Z,8.33
2023-03-06T15:43:34.425Z,8.24
2023-03-06T15:46:06.099Z,8.13
2023-03-06T15:48:35.349Z,8.05
2023-03-06T15:51:04.738Z,7.97
2023-03-06T15:53:32.448Z,7.96
2023-03-06T15:55:59.958Z,7.93
2023-03-06T15:58:31.897Z,7.88
2023-03-06T16:00:59.486Z,7.88
2023-03-06T16:03:27.258Z,7.81
2023-03-06T16:05:54.813Z,7.83
2023-03-06T16:08:22.406Z,7.50
2023-03-06T16:10:52.462Z,7.76
2023-03-06T16:13:28.772Z,7.78
2023-03-06T16:15:56.663Z,7.72
2023-03-06T16:18:24.179Z,7.70
2023-03-06T16:20:51.808Z,7.69
2023-03-06T16:23:19.900Z,7.64
2023-03-06T16:25:49.281Z,7.61
2023-03-06T16:28:17.528Z,7.56
2023-03-06T16:30:45.899Z,7.30
2023-03-06T16:33:14.122Z,7.28
2023-03-06T16:35:44.432Z,7.55
2023-03-06T16:38:12.607Z,7.52
2023-03-06T16:40:41.556Z,7.50
2023-03-06T16:43:10.754Z,7.48
2023-03-06T16:45:41.274Z,7.45
2023-03-06T16:48:14.859Z,7.48
2023-03-06T16:50:43.132Z,7.47
2023-03-06T16:53:10.681Z,7.45
2023-03-06T16:55:38.101Z,7.45
2023-03-06T16:58:06.391Z,7.13
2023-03-06T17:00:34.250Z,7.41
2023-03-06T17:03:02.395Z,7.34
2023-03-06T17:05:33.918Z,7.38
2023-03-06T17:08:01.720Z,7.14
2023-03-06T17:10:29.746Z,7.40
2023-03-06T17:12:57.810Z,7.36
2023-03-06T17:15:25.930Z,7.07
2023-03-06T17:17:53.465Z,7.37
2023-03-06T17:20:21.226Z,7.36
2023-03-06T17:22:48.682Z,7.37
2023-03-06T17:25:16.202Z,7.33
2023-03-06T17:27:43.923Z,7.14
2023-03-06T17:30:12.336Z,7.31
2023-03-06T17:32:42.898Z,7.03
2023-03-06T17:35:10.911Z,7.32
2023-03-06T17:37:38.486Z,7.34
2023-03-06T17:40:10.102Z,7.34
2023-03-06T17:42:38.170Z,7.30
2023-03-06T17:45:09.180Z,7.30
2023-03-06T17:47:37.166Z,6.97
2023-03-06T17:50:05.271Z,7.30
2023-03-06T17:52:33.812Z,7.26
2023-03-06T17:55:01.648Z,7.27
2023-03-06T17:57:29.776Z,7.25
2023-03-06T17:59:57.393Z,7.23
2023-03-06T18:02:25.019Z,7.00
2023-03-06T18:04:55.754Z,7.25
2023-03-06T18:07:24.022Z,7.19
2023-03-06T18:09:52.201Z,7.23
2023-03-06T18:12:21.008Z,6.92
2023-03-06T18:14:48.740Z,7.21
2023-03-06T18:17:16.406Z,7.26
2023-03-06T18:19:44.403Z,7.01
2023-03-06T18:22:12.173Z,7.30
2023-03-06T18:24:40.084Z,7.28
2023-03-06T18:27:08.071Z,7.16
2023-03-06T18:29:35.902Z,7.26
2023-03-06T18:32:03.726Z,7.23
2023-03-06T18:34:31.845Z,7.20
2023-03-06T18:36:59.432Z,7.19
2023-03-06T18:39:27.307Z,7.26
2023-03-06T18:41:55.955Z,7.17
2023-03-06T18:44:23.631Z,7.20
2023-03-06T18:46:51.287Z,7.21
2023-03-06T18:49:19.334Z,7.19
2023-03-06T18:51:50.376Z,6.69
2023-03-06T18:54:18.314Z,6.83
2023-03-06T18:56:46.396Z,6.51
2023-03-06T18:59:18.508Z,6.40
2023-03-06T19:01:47.932Z,6.56
2023-03-06T19:04:15.739Z,6.70
2023-03-06T19:06:43.468Z,6.56
2023-03-06T19:09:11.462Z,6.35
2023-03-06T19:11:39.295Z,6.35
2023-03-06T19:14:06.992Z,6.68
2023-03-06T19:16:35.198Z,6.72
2023-03-06T19:19:04.073Z,6.70
2023-03-06T19:21:31.963Z,6.62
2023-03-06T19:24:02.202Z,6.74
2023-03-06T19:26:29.726Z,6.76
2023-03-06T19:28:57.432Z,6.50
2023-03-06T19:31:27.897Z,6.81
2023-03-06T19:33:57.047Z,6.80
2023-03-06T19:36:28.817Z,6.81
2023-03-06T19:38:58.828Z,6.84
2023-03-06T19:41:27.762Z,6.87
2023-03-06T19:43:58.404Z,6.91
2023-03-06T19:46:27.124Z,6.95
2023-03-06T19:48:58.413Z,6.97
2023-03-06T19:51:26.941Z,7.01
2023-03-06T19:53:55.826Z,7.04
2023-03-06T19:56:26.309Z,7.01
2023-03-06T19:58:54.796Z,6.97
2023-03-06T20:01:25.240Z,6.99
2023-03-06T20:03:58.437Z,6.95
2023-03-06T20:06:29.580Z,6.98
2023-03-06T20:08:57.676Z,6.98
2023-03-06T20:11:29.892Z,6.95
2023-03-06T20:13:59.667Z,6.67
2023-03-06T20:16:28.439Z,6.98
2023-03-06T20:18:58.732Z,6.98
2023-03-06T20:21:29.559Z,6.97
2023-03-06T20:23:58.220Z,6.96
2023-03-06T20:26:28.569Z,6.98
2023-03-06T20:28:57.795Z,6.99
2023-03-06T20:31:28.251Z,6.91
2023-03-06T20:33:59.187Z,6.90
2023-03-06T20:36:30.152Z,6.93
2023-03-06T20:39:08.981Z,6.93
2023-03-06T20:41:36.947Z,6.77
2023-03-06T20:44:07.838Z,6.86
2023-03-06T20:46:36.162Z,6.86
2023-03-06T20:49:04.910Z,6.84
2023-03-06T20:51:37.529Z,6.51
2023-03-06T20:54:07.455Z,6.84
2023-03-06T20:56:36.858Z,6.88
2023-03-06T20:59:05.820Z,6.86
2023-03-06T21:01:38.366Z,6.92
2023-03-06T21:04:08.618Z,6.90
2023-03-06T21:06:37.716Z,6.93
2023-03-06T21:09:06.562Z,6.98
2023-03-06T21:11:35.374Z,6.92
2023-03-06T21:14:03.117Z,6.67
2023-03-06T21:16:31.356Z,6.89
2023-03-06T21:19:00.456Z,6.74
2023-03-06T21:21:31.500Z,6.81
2023-03-06T21:24:00.513Z,6.79
2023-03-06T21:26:30.844Z,6.58
2023-03-06T21:28:58.998Z,6.72
2023-03-06T21:31:28.482Z,6.73
2023-03-06T21:33:56.898Z,6.73
2023-03-06T21:36:25.368Z,6.81
2023-03-06T21:38:54.079Z,6.83
2023-03-06T21:41:24.885Z,6.82
2023-03-06T21:43:56.936Z,6.86
2023-03-06T21:46:25.583Z,6.89
2023-03-06T21:48:54.064Z,6.92
2023-03-06T21:51:23.709Z,6.93
2023-03-06T21:53:52.620Z,6.93
2023-03-06T21:56:23.129Z,6.88
2023-03-06T21:58:50.730Z,6.66
2023-03-06T22:01:22.154Z,6.20
2023-03-06T22:03:50.272Z,6.33
2023-03-06T22:06:20.437Z,6.42
2023-03-06T22:08:48.543Z,6.42
2023-03-06T22:11:21.268Z,6.13
2023-03-06T22:13:49.539Z,6.23
2023-03-06T22:16:18.340Z,6.23
2023-03-06T22:18:52.471Z,6.28
2023-03-06T22:21:22.192Z,6.27
2023-03-06T22:23:51.021Z,6.35
2023-03-06T22:26:19.086Z,6.46
2023-03-06T22:28:46.949Z,6.48
2023-03-06T22:31:17.583Z,6.51
2023-03-06T22:33:45.201Z,6.19
2023-03-06T22:36:15.399Z,6.47
2023-03-06T22:38:45.233Z,5.96
2023-03-06T22:41:15.084Z,6.16
2023-03-06T22:43:43.588Z,6.14
2023-03-06T22:46:16.555Z,6.21
2023-03-06T22:48:45.187Z,6.15
2023-03-06T22:51:18.383Z,6.11
2023-03-06T22:53:46.950Z,6.02
2023-03-06T22:56:18.266Z,5.95
2023-03-06T22:58:46.469Z,5.94
2023-03-06T23:01:16.965Z,5.92
2023-03-06T23:03:47.667Z,6.01
2023-03-06T23:06:16.980Z,5.81
2023-03-06T23:08:48.579Z,5.94
2023-03-06T23:11:18.289Z,5.82
2023-03-06T23:14:05.918Z,5.91
2023-03-06T23:16:52.313Z,5.93
2023-03-06T23:19:38.562Z,5.75
2023-03-06T23:22:24.397Z,5.68
2023-03-06T23:25:10.139Z,5.71
2023-03-06T23:27:38.024Z,5.56
2023-03-06T23:30:06.616Z,5.54
2023-03-06T23:32:35.065Z,5.68
2023-03-06T23:35:02.960Z,5.60
2023-03-06T23:37:30.559Z,5.61
2023-03-06T23:39:58.235Z,5.48
2023-03-06T23:42:25.971Z,5.82
2023-03-06T23:44:53.383Z,5.88
2023-03-06T23:47:20.788Z,5.53
2023-03-06T23:49:48.485Z,5.77
2023-03-06T23:52:16.183Z,5.88
2023-03-06T23:54:43.883Z,5.97
2023-03-06T23:57:11.649Z,6.02
2023-03-06T23:59:39.182Z,6.01
